Time;durP1;ratioP1;P1;durP2;ratioP2;P2;SDS_P1;SDS_P2;PMS_P1;PMS_P2;Temp;Humidity;BMP_temperature;BMP_pressure;BME280_temperature;BME280_humidity;BME280_pressure;Samples;Min_cycle;Max_cycle;Signal;HPM_P1;HPM_P2
2024/01/19 00:01:32;;;;;;;1.60;1.50;;;2.20;1.00;;;;;;5091275;28;20133;-95
2024/01/19 00:04:39;;;;;;;1.50;1.40;;;2.20;1.00;;;;;;5089839;27;20042;-96
2024/01/19 00:07:12;;;;;;;1.60;1.50;;;2.30;1.00;;;;;;5093272;28;20048;-95
2024/01/19 00:09:38;;;;;;;1.60;1.50;;;2.40;1.00;;;;;;5095641;28;20062;-94
2024/01/19 00:12:04;;;;;;;1.60;1.50;;;2.50;1.00;;;;;;5108964;27;20480;-93
2024/01/19 00:14:30;;;;;;;1.60;1.50;;;2.70;1.00;;;;;;5091016;28;20039;-93
2024/01/19 00:16:56;;;;;;;1.60;1.50;;;2.70;99.90;;;;;;5110350;28;20380;-92
2024/01/19 00:19:22;;;;;;;1.50;1.40;;;2.70;99.90;;;;;;5095722;28;20054;-93
2024/01/19 00:21:57;;;;;;;1.60;1.50;;;2.70;99.90;;;;;;5092523;28;20416;-93
2024/01/19 00:24:22;;;;;;;1.60;1.50;;;2.70;99.90;;;;;;5090386;28;20049;-92
2024/01/19 00:26:48;;;;;;;1.50;1.40;;;2.70;99.90;;;;;;5095263;28;20122;-93
2024/01/19 00:29:34;;;;;;;1.55;1.45;;;2.70;99.90;;;;;;5094480;28;20063;-94
2024/01/19 00:32:17;;;;;;;1.50;1.40;;;2.60;1.00;;;;;;5092985;28;20155;-95
2024/01/19 00:35:30;;;;;;;;;;;;;;;;;;;;;
2024/01/19 00:38:11;;;;;;;1.48;1.40;;;2.50;1.00;;;;;;5110376;28;20480;-94
2024/01/19 00:40:52;;;;;;;1.35;1.35;;;2.50;1.00;;;;;;5095079;28;20039;-94
2024/01/19 00:43:38;;;;;;;1.50;1.40;;;2.60;1.00;;;;;;5092621;28;20039;-95
2024/01/19 00:46:23;;;;;;;1.52;1.42;;;2.40;1.00;;;;;;5096165;28;20056;-93
2024/01/19 00:52:39;;;;;;;1.50;1.40;;;2.30;32.50;;;;;;4998214;27;20043;-95
2024/01/19 00:55:47;;;;;;;1.50;1.40;;;2.50;99.90;;;;;;5095684;27;20058;-94
2024/01/19 00:58:06;;;;;;;1.45;1.40;;;2.40;99.90;;;;;;5109848;27;20047;-94
2024/01/19 01:00:31;;;;;;;1.50;1.40;;;2.30;99.90;;;;;;5095830;27;20031;-93
2024/01/19 01:03:51;;;;;;;;;;;;;;;;;;;;;
2024/01/19 01:15:12;;;;;;;;;;;;;;;;;;;;;
2024/01/19 01:25:20;;;;;;;;;;;;;;;;;;;;;
2024/01/19 01:36:12;;;;;;;1.60;1.50;;;2.50;99.90;;;;;;4959943;28;20107;-96
2024/01/19 01:42:08;;;;;;;1.55;1.45;;;2.30;99.90;;;;;;5020962;28;20084;-95
2024/01/19 01:44:43;;;;;;;1.60;1.50;;;2.40;99.90;;;;;;5041559;28;20046;-93
2024/01/19 01:47:11;;;;;;;1.58;1.48;;;2.40;99.90;;;;;;5023710;28;20064;-94
2024/01/19 01:49:50;;;;;;;1.60;1.50;;;2.20;99.90;;;;;;5057599;27;20049;-94
2024/01/19 01:52:19;;;;;;;1.67;1.58;;;2.30;99.90;;;;;;5096955;27;20065;-94
2024/01/19 01:55:47;;;;;;;;;;;;;;;;;;;;;
2024/01/19 01:59:19;;;;;;;1.70;1.60;;;2.40;99.90;;;;;;5089156;27;20498;-92
2024/01/19 02:02:06;;;;;;;1.60;1.50;;;2.30;99.90;;;;;;5091410;27;20075;-95
2024/01/19 02:04:43;;;;;;;1.70;1.60;;;2.30;99.90;;;;;;5097388;27;20051;-94
2024/01/19 02:10:36;;;;;;;1.70;1.60;;;2.40;99.90;;;;;;5113387;27;20187;-94
2024/01/19 02:13:05;;;;;;;1.75;1.65;;;2.50;99.90;;;;;;5098483;27;20121;-93
2024/01/19 02:18:47;;;;;;;1.67;1.58;;;2.60;99.90;;;;;;5131298;27;20046;-95
2024/01/19 02:28:10;;;;;;;1.60;1.50;;;2.70;99.90;;;;;;5031969;28;20120;-96
2024/01/19 02:31:15;;;;;;;;;;;;;;;;;;;;;
2024/01/19 02:33:46;;;;;;;1.60;1.50;;;2.60;99.90;;;;;;5099817;27;20431;-95
2024/01/19 02:36:17;;;;;;;1.50;1.40;;;2.60;99.90;;;;;;5098383;27;20060;-93
2024/01/19 02:39:02;;;;;;;1.50;1.40;;;2.50;99.90;;;;;;5097052;27;20070;-95
2024/01/19 02:41:28;;;;;;;1.50;1.40;;;2.40;99.90;;;;;;5095292;27;20062;-93
2024/01/19 02:43:56;;;;;;;1.50;1.40;;;2.40;99.90;;;;;;5097797;27;20074;-95
2024/01/19 02:46:33;;;;;;;1.50;1.40;;;2.20;99.90;;;;;;5098310;27;20125;-94
2024/01/19 02:49:04;;;;;;;1.50;1.40;;;2.20;99.90;;;;;;5097686;27;20061;-94
2024/01/19 02:51:49;;;;;;;;;;;;;;;;;;;;;
2024/01/19 02:54:20;;;;;;;1.52;1.42;;;2.20;99.90;;;;;;5109441;27;20058;-93
2024/01/19 02:57:09;;;;;;;1.50;1.40;;;2.40;99.90;;;;;;5094274;27;20251;-95
2024/01/19 02:59:59;;;;;;;1.50;1.40;;;2.10;99.90;;;;;;5096541;27;20062;-95
2024/01/19 03:02:43;;;;;;;;;;;;;;;;;;;;;
2024/01/19 03:05:51;;;;;;;1.52;1.42;;;2.30;99.90;;;;;;5116885;27;20055;-93
2024/01/19 03:08:20;;;;;;;1.30;1.30;;;2.40;99.90;;;;;;5095019;27;20054;-94
2024/01/19 03:10:51;;;;;;;1.50;1.40;;;2.60;99.90;;;;;;5098021;27;20111;-95
2024/01/19 03:13:33;;;;;;;1.60;1.50;;;2.70;99.90;;;;;;5096461;27;20180;-95
2024/01/19 03:16:24;;;;;;;1.60;1.50;;;2.80;99.90;;;;;;5094490;27;20126;-94
2024/01/19 03:19:10;;;;;;;;;;;;;;;;;;;;;
2024/01/19 03:21:47;;;;;;;1.60;1.50;;;2.80;99.90;;;;;;5113473;27;20108;-94
2024/01/19 03:24:16;;;;;;;1.50;1.40;;;2.80;99.90;;;;;;5097241;27;20312;-93
2024/01/19 03:26:42;;;;;;;1.50;1.40;;;3.00;99.90;;;;;;5094805;27;20042;-90
2024/01/19 03:29:20;;;;;;;1.60;1.50;;;3.00;99.90;;;;;;5096128;28;20050;-94
2024/01/19 03:32:36;;;;;;;;;;;;;;;;;;;;;
2024/01/19 03:35:36;;;;;;;;;;;;;;;;;;;;;
2024/01/19 03:38:21;;;;;;;1.40;1.40;;;3.10;99.90;;;;;;5007924;28;20049;-94
2024/01/19 03:41:07;;;;;;;1.50;1.40;;;2.80;99.90;;;;;;4998509;28;20041;-95
2024/01/19 03:44:00;;;;;;;1.30;1.30;;;3.00;99.90;;;;;;5100695;28;20076;-95
2024/01/19 03:50:38;;;;;;;1.50;1.40;;;2.80;99.90;;;;;;5125072;28;20083;-95
2024/01/19 03:56:54;;;;;;;1.52;1.42;;;2.60;99.90;;;;;;5101655;28;19923;-94
2024/01/19 03:59:31;;;;;;;1.60;1.50;;;2.60;99.90;;;;;;5096132;28;20043;-93
2024/01/19 04:02:10;;;;;;;1.60;1.50;;;2.50;99.90;;;;;;5112152;28;20108;-94
2024/01/19 04:04:51;;;;;;;1.60;1.50;;;2.40;99.90;;;;;;5095496;28;20051;-94
2024/01/19 04:07:30;;;;;;;;;;;2.60;99.90;;;;;;5114857;28;20054;-94
2024/01/19 04:10:05;;;;;;;1.65;1.55;;;2.70;99.90;;;;;;5112596;28;20002;-93
2024/01/19 04:12:34;;;;;;;1.60;1.50;;;2.50;99.90;;;;;;5097444;28;20057;-94
2024/01/19 04:15:00;;;;;;;1.50;1.40;;;2.70;99.90;;;;;;5113868;28;20060;-93
2024/01/19 04:17:28;;;;;;;1.60;1.50;;;2.40;99.90;;;;;;5113653;28;20534;-92
2024/01/19 04:19:53;;;;;;;1.58;1.48;;;2.70;99.90;;;;;;5096647;28;20617;-92
2024/01/19 04:22:26;;;;;;;1.60;1.50;;;2.40;99.90;;;;;;5098349;28;20134;-94
2024/01/19 04:24:52;;;;;;;1.65;1.55;;;2.40;99.90;;;;;;5096010;28;20039;-93
2024/01/19 04:27:21;;;;;;;1.63;1.52;;;2.30;99.90;;;;;;5099411;27;20100;-93
2024/01/19 04:29:54;;;;;;;1.58;1.48;;;2.40;99.90;;;;;;5101026;27;20035;-94
2024/01/19 04:32:23;;;;;;;1.50;1.40;;;2.10;99.90;;;;;;5100435;27;20104;-94
2024/01/19 04:34:51;;;;;;;1.65;1.55;;;2.00;99.90;;;;;;5118990;27;20062;-93
2024/01/19 04:37:29;;;;;;;1.52;1.42;;;1.90;99.90;;;;;;5100586;27;20050;-95
2024/01/19 04:42:58;;;;;;;1.50;1.40;;;2.30;99.90;;;;;;5103983;27;20047;-94
2024/01/19 04:45:52;;;;;;;1.58;1.48;;;2.10;99.90;;;;;;5097453;27;20488;-95
2024/01/19 04:48:23;;;;;;;1.50;1.40;;;2.50;99.90;;;;;;5096544;27;20050;-94
2024/01/19 04:51:19;;;;;;;1.60;1.50;;;2.30;99.90;;;;;;5099649;27;20142;-95
2024/01/19 04:53:50;;;;;;;1.70;1.60;;;2.50;99.90;;;;;;5100059;27;20073;-94
2024/01/19 04:56:22;;;;;;;1.60;1.50;;;2.50;99.90;;;;;;5094468;27;20047;-94
2024/01/19 04:58:48;;;;;;;1.65;1.55;;;2.60;99.90;;;;;;5099541;27;20047;-93
2024/01/19 05:01:32;;;;;;;1.65;1.55;;;3.00;99.90;;;;;;5101892;27;20066;-94
2024/01/19 05:04:09;;;;;;;1.60;1.50;;;2.60;99.90;;;;;;5098675;27;20073;-94
2024/01/19 05:06:41;;;;;;;1.63;1.52;;;2.90;99.90;;;;;;5101406;27;20039;-95
2024/01/19 05:09:10;;;;;;;1.63;1.52;;;2.80;99.90;;;;;;5097679;27;20039;-95
2024/01/19 05:11:35;;;;;;;1.63;1.52;;;3.20;99.90;;;;;;5099984;27;20069;-94
2024/01/19 05:14:14;;;;;;;1.55;1.45;;;2.80;99.90;;;;;;5099503;27;20039;-94
2024/01/19 05:16:43;;;;;;;1.65;1.55;;;2.80;99.90;;;;;;5098446;27;20039;-93
2024/01/19 05:19:09;;;;;;;1.60;1.50;;;3.40;99.90;;;;;;5098694;27;20180;-93
2024/01/19 05:21:34;;;;;;;1.65;1.55;;;3.50;99.90;;;;;;5116248;27;20130;-92
2024/01/19 05:24:03;;;;;;;1.70;1.60;;;3.20;99.90;;;;;;5099505;27;20035;-94
2024/01/19 05:26:34;;;;;;;1.50;1.40;;;3.70;99.90;;;;;;5099701;27;20053;-93
2024/01/19 05:29:00;;;;;;;1.60;1.50;;;3.60;99.90;;;;;;5098705;27;20036;-94
2024/01/19 05:31:26;;;;;;;1.45;1.40;;;3.10;99.90;;;;;;5098350;27;20046;-93
2024/01/19 05:33:51;;;;;;;1.50;1.40;;;3.10;99.90;;;;;;5098991;27;20072;-94
2024/01/19 05:36:23;;;;;;;1.40;1.40;;;3.10;99.90;;;;;;5100612;27;20070;-94
2024/01/19 05:38:52;;;;;;;1.52;1.42;;;3.30;99.90;;;;;;5098823;27;20677;-94
2024/01/19 05:41:20;;;;;;;1.50;1.40;;;3.20;99.90;;;;;;5100242;27;20184;-94
2024/01/19 05:43:46;;;;;;;1.40;1.40;;;3.00;99.90;;;;;;5100895;27;20492;-94
2024/01/19 05:46:18;;;;;;;1.45;1.40;;;3.10;99.90;;;;;;5099039;27;20500;-93
2024/01/19 05:48:43;;;;;;;1.50;1.40;;;3.40;99.90;;;;;;5098683;27;20043;-93
2024/01/19 05:51:14;;;;;;;1.50;1.40;;;2.80;99.90;;;;;;5101640;27;20039;-93
2024/01/19 05:53:39;;;;;;;1.60;1.50;;;3.10;99.90;;;;;;5096382;27;20035;-93
2024/01/19 05:56:05;;;;;;;1.60;1.50;;;2.60;99.90;;;;;;5098537;27;20492;-93
2024/01/19 05:58:31;;;;;;;1.60;1.50;;;2.40;99.90;;;;;;5096353;27;20035;-93
2024/01/19 06:01:00;;;;;;;1.45;1.38;;;2.50;99.90;;;;;;5097988;27;20039;-94
2024/01/19 06:03:25;;;;;;;1.60;1.50;;;2.70;99.90;;;;;;5098448;27;20077;-93
2024/01/19 06:05:51;;;;;;;1.60;1.50;;;2.70;99.90;;;;;;5097787;27;20058;-93
2024/01/19 06:08:17;;;;;;;1.70;1.60;;;2.40;99.90;;;;;;5098609;27;20502;-93
2024/01/19 06:10:43;;;;;;;1.70;1.60;;;2.50;99.90;;;;;;5099465;27;20071;-93
2024/01/19 06:13:09;;;;;;;1.67;1.58;;;2.10;99.90;;;;;;5099424;27;20075;-93
2024/01/19 06:15:35;;;;;;;1.58;1.48;;;2.50;99.90;;;;;;5101259;27;20472;-93
2024/01/19 06:18:04;;;;;;;1.70;1.60;;;2.10;99.90;;;;;;5097591;27;20103;-93
2024/01/19 06:20:29;;;;;;;1.70;1.60;;;2.60;99.90;;;;;;5097236;27;20081;-92
2024/01/19 06:22:55;;;;;;;1.60;1.50;;;2.20;99.90;;;;;;5097656;27;20070;-92
2024/01/19 06:25:21;;;;;;;1.70;1.60;;;2.40;99.90;;;;;;5097710;27;20459;-93
2024/01/19 06:27:47;;;;;;;1.60;1.50;;;2.20;99.90;;;;;;5114082;27;20480;-93
2024/01/19 06:30:14;;;;;;;1.70;1.60;;;2.60;99.90;;;;;;5098695;27;20045;-92
2024/01/19 06:32:40;;;;;;;1.63;1.52;;;2.10;99.90;;;;;;5097765;27;20035;-91
2024/01/19 06:35:06;;;;;;;1.67;1.58;;;2.40;99.90;;;;;;5097719;27;20031;-92
2024/01/19 06:37:32;;;;;;;1.60;1.50;;;2.00;99.90;;;;;;5096345;27;20127;-93
2024/01/19 06:39:58;;;;;;;1.70;1.60;;;2.30;99.90;;;;;;5096741;27;20051;-92
2024/01/19 06:42:24;;;;;;;1.75;1.65;;;2.00;99.90;;;;;;5096608;27;20099;-92
2024/01/19 06:44:50;;;;;;;1.80;1.70;;;2.00;99.90;;;;;;5098454;27;20035;-91
2024/01/19 06:47:19;;;;;;;1.70;1.60;;;2.40;99.90;;;;;;5094767;27;20041;-92
2024/01/19 06:49:45;;;;;;;1.60;1.50;;;2.30;99.90;;;;;;5094482;27;20112;-91
2024/01/19 06:52:11;;;;;;;1.70;1.60;;;2.00;99.90;;;;;;5114128;27;20046;-92
2024/01/19 06:54:36;;;;;;;1.70;1.60;;;1.90;99.90;;;;;;5097145;27;20547;-92
2024/01/19 06:57:02;;;;;;;1.80;1.70;;;2.10;99.90;;;;;;5096828;27;20039;-91
2024/01/19 06:59:28;;;;;;;1.70;1.60;;;1.80;99.90;;;;;;5095297;27;20099;-92
2024/01/19 07:01:54;;;;;;;1.75;1.65;;;2.20;99.90;;;;;;5095770;27;20065;-92
2024/01/19 07:04:20;;;;;;;1.75;1.65;;;2.10;99.90;;;;;;5096659;27;20100;-91
2024/01/19 07:06:46;;;;;;;1.60;1.50;;;2.20;99.90;;;;;;5095400;27;20046;-92
2024/01/19 07:09:12;;;;;;;1.65;1.55;;;2.00;99.90;;;;;;5097581;27;20039;-91
2024/01/19 07:11:38;;;;;;;1.73;1.63;;;1.90;99.90;;;;;;5095717;27;20498;-92
2024/01/19 07:14:04;;;;;;;1.73;1.63;;;2.30;99.90;;;;;;5096381;27;20050;-92
2024/01/19 07:16:30;;;;;;;1.73;1.63;;;2.10;99.90;;;;;;5111629;27;20035;-92
2024/01/19 07:18:55;;;;;;;1.60;1.50;;;2.10;99.90;;;;;;5112926;28;20042;-92
2024/01/19 07:21:22;;;;;;;1.77;1.67;;;2.60;99.90;;;;;;5095445;27;20670;-91
2024/01/19 07:23:48;;;;;;;1.77;1.67;;;2.50;99.90;;;;;;5097755;28;20035;-92
2024/01/19 07:26:19;;;;;;;1.77;1.67;;;2.80;99.90;;;;;;5096535;28;20046;-93
2024/01/19 07:28:45;;;;;;;1.80;1.70;;;2.60;99.90;;;;;;5095548;27;20043;-91
2024/01/19 07:31:10;;;;;;;1.85;1.75;;;2.90;99.90;;;;;;5093601;27;20043;-90
2024/01/19 07:33:37;;;;;;;1.70;1.60;;;2.80;99.90;;;;;;5096564;27;20039;-91
2024/01/19 07:36:03;;;;;;;1.88;1.77;;;2.50;99.90;;;;;;5096137;27;20043;-91
2024/01/19 07:38:29;;;;;;;1.73;1.63;;;2.60;99.90;;;;;;5094359;27;20331;-91
2024/01/19 07:40:54;;;;;;;1.70;1.60;;;2.80;99.90;;;;;;5110578;28;20062;-91
2024/01/19 07:43:20;;;;;;;1.73;1.63;;;2.50;99.90;;;;;;5095399;28;20082;-92
2024/01/19 07:45:46;;;;;;;1.70;1.60;;;2.70;99.90;;;;;;5097346;28;20503;-91
2024/01/19 07:48:11;;;;;;;1.63;1.52;;;2.50;99.90;;;;;;5096282;28;20035;-90
2024/01/19 07:50:37;;;;;;;1.67;1.58;;;2.20;99.90;;;;;;5097443;28;20043;-90
2024/01/19 07:53:03;;;;;;;1.67;1.58;;;2.50;99.90;;;;;;5096088;28;20651;-91
2024/01/19 07:55:28;;;;;;;1.70;1.60;;;2.50;99.90;;;;;;5094368;28;20040;-90
2024/01/19 07:57:54;;;;;;;1.65;1.55;;;2.20;99.90;;;;;;5094938;28;20043;-90
2024/01/19 08:00:20;;;;;;;1.70;1.60;;;2.60;99.90;;;;;;5096564;27;20126;-90
2024/01/19 08:02:46;;;;;;;1.65;1.55;;;2.70;99.90;;;;;;5114473;27;20040;-90
2024/01/19 08:05:12;;;;;;;1.67;1.58;;;2.40;99.90;;;;;;5096512;27;20039;-91
2024/01/19 08:07:37;;;;;;;1.67;1.58;;;2.30;99.90;;;;;;5097955;27;20039;-88
2024/01/19 08:10:04;;;;;;;1.70;1.60;;;2.30;99.90;;;;;;5102010;27;20276;-91
2024/01/19 08:12:30;;;;;;;1.65;1.55;;;2.40;99.90;;;;;;5097616;27;20075;-90
2024/01/19 08:14:57;;;;;;;1.60;1.50;;;2.50;99.90;;;;;;5099215;27;20143;-90
2024/01/19 08:17:23;;;;;;;1.70;1.60;;;2.80;99.90;;;;;;5100829;27;20043;-89
2024/01/19 08:19:49;;;;;;;1.50;1.40;;;2.80;99.90;;;;;;5100446;27;20051;-90
2024/01/19 08:22:14;;;;;;;1.50;1.40;;;2.70;99.90;;;;;;5100151;27;20047;-90
2024/01/19 08:24:40;;;;;;;1.50;1.40;;;2.60;99.90;;;;;;5101427;27;20120;-90
2024/01/19 08:27:06;;;;;;;1.60;1.50;;;3.00;99.90;;;;;;5100703;27;20080;-91
2024/01/19 08:29:34;;;;;;;1.60;1.50;;;2.90;99.90;;;;;;5099649;27;20047;-89
2024/01/19 08:32:00;;;;;;;1.55;1.45;;;3.20;99.90;;;;;;5113463;27;20075;-90
2024/01/19 08:34:27;;;;;;;1.50;1.40;;;3.20;99.90;;;;;;5099777;27;20071;-90
2024/01/19 08:36:53;;;;;;;1.70;1.60;;;3.20;99.90;;;;;;5116559;27;20054;-89
2024/01/19 08:39:19;;;;;;;1.50;1.40;;;3.40;99.90;;;;;;5099216;27;20039;-91
2024/01/19 08:41:45;;;;;;;1.45;1.40;;;3.30;99.90;;;;;;5098712;27;20077;-91
2024/01/19 08:44:11;;;;;;;1.60;1.50;;;3.50;99.90;;;;;;5099289;27;20047;-91
2024/01/19 08:46:44;;;;;;;1.50;1.40;;;3.70;99.90;;;;;;5116585;27;20514;-89
2024/01/19 08:49:10;;;;;;;1.45;1.40;;;3.60;99.90;;;;;;5098798;27;20073;-90
2024/01/19 08:51:36;;;;;;;1.52;1.42;;;3.90;99.90;;;;;;5098547;27;20039;-89
2024/01/19 08:54:03;;;;;;;1.35;1.35;;;4.00;99.90;;;;;;5114407;27;20369;-90
2024/01/19 08:56:29;;;;;;;1.30;1.30;;;4.00;99.90;;;;;;5098989;27;20043;-92
2024/01/19 08:58:57;;;;;;;1.30;1.30;;;4.10;99.90;;;;;;5099382;27;20046;-91
2024/01/19 09:01:23;;;;;;;1.30;1.30;;;4.00;99.90;;;;;;5094319;27;20161;-91
2024/01/19 09:03:49;;;;;;;1.33;1.33;;;3.70;99.90;;;;;;5112827;27;20047;-92
2024/01/19 09:06:15;;;;;;;1.50;1.40;;;3.60;99.90;;;;;;5096064;27;20404;-88
2024/01/19 09:08:43;;;;;;;1.50;1.40;;;3.50;99.90;;;;;;5099033;27;20039;-90
2024/01/19 09:11:09;;;;;;;1.33;1.33;;;3.40;99.90;;;;;;5097934;27;20100;-90
2024/01/19 09:13:37;;;;;;;1.38;1.35;;;3.60;99.90;;;;;;5098889;27;20525;-90
2024/01/19 09:16:09;;;;;;;1.50;1.40;;;3.70;99.90;;;;;;5097196;27;20139;-93
2024/01/19 09:18:36;;;;;;;1.45;1.38;;;3.90;99.90;;;;;;5099596;27;20046;-91
2024/01/19 09:21:02;;;;;;;1.45;1.38;;;4.10;99.90;;;;;;5099213;27;20350;-92
2024/01/19 09:23:28;;;;;;;1.48;1.40;;;4.10;99.90;;;;;;5098972;27;20061;-92
2024/01/19 09:25:57;;;;;;;1.50;1.40;;;4.20;99.90;;;;;;5099229;27;20047;-93
2024/01/19 09:28:23;;;;;;;1.50;1.40;;;4.30;99.90;;;;;;5099764;27;20039;-91
2024/01/19 09:30:49;;;;;;;1.50;1.40;;;4.20;99.90;;;;;;5100221;27;20438;-91
2024/01/19 09:33:23;;;;;;;1.70;1.60;;;4.40;99.90;;;;;;5098803;27;20043;-93
2024/01/19 09:35:49;;;;;;;1.58;1.48;;;4.40;99.90;;;;;;5099898;27;20480;-92
2024/01/19 09:38:15;;;;;;;1.60;1.50;;;4.50;99.90;;;;;;5099202;27;20047;-92
2024/01/19 09:40:45;;;;;;;1.50;1.40;;;4.50;69.50;;;;;;5100119;27;20061;-92
2024/01/19 09:43:12;;;;;;;1.60;1.50;;;4.70;47.40;;;;;;5098732;27;20073;-92
2024/01/19 09:45:45;;;;;;;1.60;1.50;;;4.60;1.00;;;;;;5098904;27;20488;-91
2024/01/19 09:48:24;;;;;;;1.60;1.50;;;4.70;1.00;;;;;;5097214;27;20044;-93
2024/01/19 09:50:57;;;;;;;1.60;1.50;;;4.70;1.00;;;;;;5099859;27;20483;-93
2024/01/19 09:53:25;;;;;;;1.60;1.50;;;4.90;1.00;;;;;;5097745;27;20400;-92
2024/01/19 09:55:51;;;;;;;1.60;1.50;;;4.90;1.00;;;;;;5099461;27;20035;-92
2024/01/19 09:58:20;;;;;;;1.58;1.48;;;4.90;99.90;;;;;;5098610;27;20065;-92
2024/01/19 10:01:04;;;;;;;1.60;1.50;;;4.90;99.90;;;;;;5098907;27;20364;-93
2024/01/19 10:03:38;;;;;;;1.60;1.50;;;4.90;99.90;;;;;;5098340;27;20134;-94
2024/01/19 10:06:07;;;;;;;1.50;1.40;;;4.90;99.90;;;;;;5099013;27;20103;-92
2024/01/19 10:09:16;;;;;;;1.50;1.40;;;4.90;99.90;;;;;;5099073;27;20122;-94
2024/01/19 10:11:44;;;;;;;1.52;1.42;;;5.00;99.90;;;;;;5098266;27;20122;-91
2024/01/19 10:14:10;;;;;;;1.33;1.30;;;5.00;99.90;;;;;;5096611;27;20093;-91
2024/01/19 10:16:52;;;;;;;1.30;1.30;;;5.10;99.90;;;;;;5098520;27;20083;-92
2024/01/19 10:19:21;;;;;;;1.33;1.30;;;5.10;99.90;;;;;;5098878;27;20071;-92
2024/01/19 10:21:50;;;;;;;1.30;1.30;;;5.10;65.10;;;;;;5097150;27;20039;-92
2024/01/19 10:24:40;;;;;;;1.35;1.33;;;5.20;40.80;;;;;;5096591;27;20864;-94
2024/01/19 10:27:18;;;;;;;;;;;5.10;1.00;;;;;;5100208;27;20457;-93
2024/01/19 10:30:04;;;;;;;1.50;1.40;;;5.20;1.00;;;;;;5097696;27;19927;-93
2024/01/19 10:32:31;;;;;;;1.30;1.30;;;5.30;1.00;;;;;;5086658;27;20066;-92
2024/01/19 10:35:05;;;;;;;1.30;1.30;;;5.30;1.00;;;;;;5098383;27;20125;-93
2024/01/19 10:37:30;;;;;;;1.30;1.30;;;5.30;1.00;;;;;;5098301;27;20134;-93
2024/01/19 10:40:31;;;;;;;1.25;1.25;;;5.40;1.00;;;;;;5097541;27;20066;-94
2024/01/19 10:43:04;;;;;;;1.42;1.33;;;5.30;1.00;;;;;;5096970;27;20039;-94
2024/01/19 10:45:49;;;;;;;;;;;;;;;;;;;;;
2024/01/19 10:48:28;;;;;;;1.35;1.30;;;5.40;1.00;;;;;;5113737;27;20660;-95
2024/01/19 10:58:33;;;;;;;1.30;1.30;;;5.50;1.00;;;;;;5129589;27;20533;-92
2024/01/19 11:01:21;;;;;;;1.30;1.30;;;5.60;1.00;;;;;;5096914;27;20047;-93
2024/01/19 11:03:46;;;;;;;1.30;1.30;;;5.70;1.00;;;;;;5098230;27;20042;-92
2024/01/19 11:06:12;;;;;;;1.30;1.30;;;5.80;1.00;;;;;;5098203;27;20047;-93
2024/01/19 11:08:39;;;;;;;1.30;1.30;;;5.80;1.00;;;;;;5097040;27;20232;-93
2024/01/19 11:11:06;;;;;;;1.50;1.40;;;5.90;1.00;;;;;;5097696;27;20051;-92
2024/01/19 11:13:38;;;;;;;1.60;1.50;;;5.80;99.90;;;;;;5097028;27;20035;-91
2024/01/19 11:16:17;;;;;;;1.70;1.60;;;5.90;99.90;;;;;;5114334;27;20078;-89
2024/01/19 11:18:44;;;;;;;1.80;1.70;;;6.10;99.90;;;;;;5113512;27;20046;-88
2024/01/19 11:21:10;;;;;;;1.80;1.70;;;6.20;99.90;;;;;;5096696;27;20134;-90
2024/01/19 11:23:37;;;;;;;2.00;1.90;;;6.30;99.90;;;;;;5095236;27;20122;-89
2024/01/19 11:26:15;;;;;;;2.08;1.88;;;6.30;99.90;;;;;;5095102;27;20514;-88
2024/01/19 11:28:50;;;;;;;2.08;1.98;;;6.50;99.90;;;;;;5110778;27;20035;-89
2024/01/19 11:31:19;;;;;;;1.90;1.80;;;6.40;99.90;;;;;;5092267;27;20039;-90
2024/01/19 11:33:45;;;;;;;2.00;1.90;;;6.30;99.90;;;;;;5108078;27;20111;-89
2024/01/19 11:36:32;;;;;;;2.00;1.90;;;6.30;99.90;;;;;;5110850;28;20385;-90
2024/01/19 11:38:58;;;;;;;2.00;1.90;;;6.40;99.90;;;;;;5110704;27;20126;-90
2024/01/19 11:41:46;;;;;;;1.77;1.67;;;6.50;99.90;;;;;;5109471;28;20133;-89
2024/01/19 11:44:42;;;;;;;2.20;2.10;;;6.50;99.90;;;;;;5109470;28;20047;-89
2024/01/19 11:47:09;;;;;;;2.35;2.25;;;6.60;99.90;;;;;;5093936;28;20050;-92
2024/01/19 11:49:35;;;;;;;2.35;2.25;;;6.70;99.90;;;;;;5093530;28;20047;-88
2024/01/19 11:52:03;;;;;;;1.90;1.80;;;6.80;99.90;;;;;;5112378;28;20047;-91
2024/01/19 11:54:33;;;;;;;1.90;1.80;;;6.90;99.90;;;;;;5095142;28;20100;-89
2024/01/19 11:57:22;;;;;;;2.42;2.33;;;7.00;99.90;;;;;;5112406;28;20039;-89
2024/01/19 11:59:48;;;;;;;2.45;2.35;;;7.10;99.90;;;;;;5110421;28;20685;-91
2024/01/19 12:02:27;;;;;;;1.77;1.67;;;7.20;99.90;;;;;;5095122;28;20039;-89
2024/01/19 12:04:54;;;;;;;2.40;2.30;;;7.30;99.90;;;;;;5113025;28;20047;-92
2024/01/19 12:07:23;;;;;;;1.75;1.65;;;7.40;99.90;;;;;;5094694;28;20044;-91
2024/01/19 12:10:25;;;;;;;2.33;2.22;;;7.40;99.90;;;;;;5112600;28;20042;-89
2024/01/19 12:12:51;;;;;;;1.60;1.50;;;7.50;94.20;;;;;;5102382;28;20050;-89
2024/01/19 12:15:17;;;;;;;1.73;1.63;;;7.50;59.80;;;;;;5091717;28;20051;-89
2024/01/19 12:17:44;;;;;;;2.22;2.13;;;7.70;69.20;;;;;;5105933;28;20040;-89
2024/01/19 12:20:17;;;;;;;1.90;1.80;;;7.70;33.20;;;;;;5112179;28;20043;-90
2024/01/19 12:22:45;;;;;;;2.30;2.20;;;7.80;17.90;;;;;;5091740;28;20473;-89
2024/01/19 12:25:18;;;;;;;2.17;2.08;;;7.80;13.50;;;;;;5092036;28;20047;-88
2024/01/19 12:27:44;;;;;;;;;;;7.90;15.10;;;;;;5108335;28;20114;-88
2024/01/19 12:30:13;;;;;;;2.10;2.00;;;7.80;1.00;;;;;;5108369;28;20272;-91
2024/01/19 12:32:40;;;;;;;1.55;1.45;;;7.80;1.00;;;;;;5092198;28;20039;-90
2024/01/19 12:35:06;;;;;;;2.00;1.90;;;7.80;1.00;;;;;;5094442;28;20180;-92
2024/01/19 12:37:32;;;;;;;1.80;1.70;;;7.80;1.00;;;;;;5090909;28;20074;-88
2024/01/19 12:40:27;;;;;;;2.00;1.90;;;7.80;1.00;;;;;;5110171;28;20112;-91
2024/01/19 12:42:52;;;;;;;1.92;1.83;;;7.80;7.00;;;;;;5109662;28;20315;-91
2024/01/19 12:45:19;;;;;;;1.65;1.55;;;7.90;1.00;;;;;;5110685;27;20196;-90
2024/01/19 12:47:47;;;;;;;2.00;1.90;;;7.90;1.00;;;;;;5095080;27;20039;-90
2024/01/19 12:50:14;;;;;;;2.10;2.00;;;8.00;13.50;;;;;;5113695;27;20039;-91
2024/01/19 12:52:39;;;;;;;1.95;1.85;;;8.00;1.00;;;;;;5111561;27;20046;-90
2024/01/19 12:55:07;;;;;;;1.60;1.50;;;7.90;1.00;;;;;;5111657;27;20050;-89
2024/01/19 12:57:33;;;;;;;1.75;1.65;;;8.00;9.70;;;;;;5093020;27;20035;-89
2024/01/19 13:00:26;;;;;;;1.83;1.73;;;8.00;1.00;;;;;;5107577;27;20503;-90
2024/01/19 13:02:55;;;;;;;1.65;1.55;;;8.00;1.00;;;;;;5105240;27;20555;-89
2024/01/19 13:05:22;;;;;;;1.63;1.52;;;8.10;1.00;;;;;;5091965;27;20473;-89
2024/01/19 13:07:48;;;;;;;1.65;1.55;;;8.10;1.00;;;;;;5110584;27;20051;-89
2024/01/19 13:10:20;;;;;;;1.77;1.67;;;8.10;1.00;;;;;;5113579;27;20043;-89
2024/01/19 13:12:47;;;;;;;1.55;1.45;;;8.00;1.00;;;;;;5114763;27;20039;-89
2024/01/19 13:15:16;;;;;;;1.65;1.55;;;8.10;1.00;;;;;;5094313;27;20066;-89
2024/01/19 13:17:43;;;;;;;1.65;1.55;;;8.10;1.00;;;;;;5091804;27;20035;-88
2024/01/19 13:20:21;;;;;;;1.73;1.63;;;8.10;1.00;;;;;;5094769;27;20043;-88
2024/01/19 13:22:47;;;;;;;1.55;1.48;;;8.10;1.00;;;;;;5094155;27;20681;-86
2024/01/19 13:25:13;;;;;;;1.65;1.55;;;8.10;1.00;;;;;;5093280;27;20134;-87
2024/01/19 13:27:38;;;;;;;1.65;1.55;;;8.00;1.00;;;;;;5111967;27;20096;-87
2024/01/19 13:30:05;;;;;;;1.77;1.67;;;8.00;1.00;;;;;;5093022;27;20043;-89
2024/01/19 13:32:31;;;;;;;1.67;1.58;;;7.90;1.00;;;;;;5092952;27;20062;-89
2024/01/19 13:34:56;;;;;;;1.67;1.58;;;7.90;1.00;;;;;;5110158;27;20043;-89
2024/01/19 13:37:22;;;;;;;1.63;1.52;;;7.90;1.00;;;;;;5110156;27;20032;-87
2024/01/19 13:39:52;;;;;;;1.42;1.40;;;8.00;1.00;;;;;;5109215;27;20091;-89
2024/01/19 13:42:19;;;;;;;1.73;1.63;;;7.90;1.00;;;;;;5111611;27;20095;-87
2024/01/19 13:44:45;;;;;;;1.63;1.52;;;7.90;1.00;;;;;;5109455;27;20067;-88
2024/01/19 13:47:10;;;;;;;1.27;1.27;;;7.90;1.00;;;;;;5094551;27;21051;-89
2024/01/19 13:49:36;;;;;;;1.60;1.50;;;7.90;1.00;;;;;;5093339;27;20043;-86
2024/01/19 13:52:03;;;;;;;1.73;1.63;;;7.90;1.00;;;;;;5092702;27;20084;-87
2024/01/19 13:54:29;;;;;;;1.63;1.52;;;7.80;1.00;;;;;;5110592;27;20043;-89
2024/01/19 13:56:56;;;;;;;1.30;1.30;;;7.90;1.00;;;;;;5109932;27;20062;-88
2024/01/19 13:59:21;;;;;;;1.52;1.42;;;7.80;1.00;;;;;;5093591;27;20108;-88
2024/01/19 14:01:48;;;;;;;1.52;1.42;;;7.70;1.00;;;;;;5093905;27;20055;-89
2024/01/19 14:04:14;;;;;;;1.52;1.42;;;7.70;1.00;;;;;;5111391;27;20051;-88
2024/01/19 14:06:41;;;;;;;1.35;1.35;;;7.70;1.00;;;;;;5094726;27;20100;-87
2024/01/19 14:09:07;;;;;;;1.55;1.45;;;7.70;1.00;;;;;;5111873;27;20047;-90
2024/01/19 14:11:33;;;;;;;1.83;1.73;;;7.70;1.00;;;;;;5094628;27;20434;-88
2024/01/19 14:13:59;;;;;;;1.67;1.58;;;7.70;1.00;;;;;;5111462;27;20054;-87
2024/01/19 14:16:25;;;;;;;1.30;1.30;;;7.70;1.00;;;;;;5091595;27;20058;-89
2024/01/19 14:18:50;;;;;;;1.30;1.30;;;7.70;1.00;;;;;;5089162;27;20050;-89
2024/01/19 14:21:16;;;;;;;1.67;1.58;;;7.50;1.00;;;;;;5089372;27;20111;-90
2024/01/19 14:23:43;;;;;;;1.45;1.42;;;7.50;1.00;;;;;;5094144;27;20042;-89
2024/01/19 14:26:09;;;;;;;1.50;1.42;;;7.50;1.00;;;;;;5092193;27;20046;-87
2024/01/19 14:28:35;;;;;;;1.42;1.38;;;7.40;1.00;;;;;;5111229;27;20512;-87
2024/01/19 14:31:01;;;;;;;1.48;1.42;;;7.40;1.00;;;;;;5111166;27;20040;-86
2024/01/19 14:33:27;;;;;;;1.83;1.73;;;7.40;1.00;;;;;;5110028;27;20531;-87
2024/01/19 14:35:53;;;;;;;1.27;1.27;;;7.30;1.00;;;;;;5107282;27;20072;-88
2024/01/19 14:38:19;;;;;;;1.63;1.52;;;7.30;1.00;;;;;;5090152;27;20641;-89
2024/01/19 14:40:45;;;;;;;1.02;1.02;;;7.30;1.00;;;;;;5092577;27;20046;-88
2024/01/19 14:43:10;;;;;;;1.45;1.42;;;7.20;1.00;;;;;;5109148;27;20042;-87